sensor_id;sensor_type;location;lat;lon;timestamp;P1;durP1;ratioP1;P2;durP2;ratioP2
32734;SDS011;19112;51.076;3.706;2022-08-19T00:01:42;63.03;;;34.38;;
32734;SDS011;19112;51.076;3.706;2022-08-19T00:04:11;56.88;;;32.97;;
32734;SDS011;19112;51.076;3.706;2022-08-19T00:06:40;55.83;;;31.65;;
32734;SDS011;19112;51.076;3.706;2022-08-19T00:09:09;59.38;;;32.95;;
32734;SDS011;19112;51.076;3.706;2022-08-19T00:11:38;56.55;;;31.20;;
32734;SDS011;19112;51.076;3.706;2022-08-19T00:14:05;59.90;;;32.75;;
32734;SDS011;19112;51.076;3.706;2022-08-19T00:16:34;54.40;;;31.13;;
32734;SDS011;19112;51.076;3.706;2022-08-19T00:19:03;55.92;;;31.33;;
32734;SDS011;19112;51.076;3.706;2022-08-19T00:21:29;54.10;;;30.42;;
32734;SDS011;19112;51.076;3.706;2022-08-19T00:23:55;59.70;;;32.70;;
32734;SDS011;19112;51.076;3.706;2022-08-19T00:26:25;58.50;;;31.30;;
32734;SDS011;19112;51.076;3.706;2022-08-19T00:28:53;57.50;;;31.75;;
32734;SDS011;19112;51.076;3.706;2022-08-19T00:31:19;63.28;;;34.60;;
32734;SDS011;19112;51.076;3.706;2022-08-19T00:33:46;58.58;;;33.03;;
32734;SDS011;19112;51.076;3.706;2022-08-19T00:36:14;70.50;;;35.15;;
32734;SDS011;19112;51.076;3.706;2022-08-19T00:38:40;63.80;;;34.92;;
32734;SDS011;19112;51.076;3.706;2022-08-19T00:41:08;64.38;;;33.90;;
32734;SDS011;19112;51.076;3.706;2022-08-19T00:43:39;63.33;;;33.70;;
32734;SDS011;19112;51.076;3.706;2022-08-19T00:46:06;61.78;;;32.88;;
32734;SDS011;19112;51.076;3.706;2022-08-19T00:48:33;68.93;;;33.60;;
32734;SDS011;19112;51.076;3.706;2022-08-19T00:51:01;58.22;;;32.40;;
32734;SDS011;19112;51.076;3.706;2022-08-19T00:53:29;63.63;;;34.42;;
32734;SDS011;19112;51.076;3.706;2022-08-19T00:55:59;61.10;;;33.50;;
32734;SDS011;19112;51.076;3.706;2022-08-19T00:58:29;62.03;;;33.03;;
32734;SDS011;19112;51.076;3.706;2022-08-19T01:00:58;58.97;;;31.52;;
32734;SDS011;19112;51.076;3.706;2022-08-19T01:03:26;63.63;;;33.10;;
32734;SDS011;19112;51.076;3.706;2022-08-19T01:05:52;62.88;;;32.42;;
32734;SDS011;19112;51.076;3.706;2022-08-19T01:08:20;61.67;;;31.90;;
32734;SDS011;19112;51.076;3.706;2022-08-19T01:10:48;62.17;;;33.70;;
32734;SDS011;19112;51.076;3.706;2022-08-19T01:13:20;56.92;;;31.15;;
32734;SDS011;19112;51.076;3.706;2022-08-19T01:15:50;58.85;;;30.95;;
32734;SDS011;19112;51.076;3.706;2022-08-19T01:18:24;55.72;;;29.00;;
32734;SDS011;19112;51.076;3.706;2022-08-19T01:20:52;55.88;;;29.13;;
32734;SDS011;19112;51.076;3.706;2022-08-19T01:23:24;55.33;;;29.02;;
32734;SDS011;19112;51.076;3.706;2022-08-19T01:26:07;59.90;;;28.98;;
32734;SDS011;19112;51.076;3.706;2022-08-19T01:28:44;56.83;;;28.70;;
32734;SDS011;19112;51.076;3.706;2022-08-19T01:31:17;53.80;;;28.05;;
32734;SDS011;19112;51.076;3.706;2022-08-19T01:33:47;57.17;;;29.40;;
32734;SDS011;19112;51.076;3.706;2022-08-19T01:36:21;53.00;;;28.17;;
32734;SDS011;19112;51.076;3.706;2022-08-19T01:38:56;51.22;;;27.15;;
32734;SDS011;19112;51.076;3.706;2022-08-19T01:41:24;54.65;;;28.55;;
32734;SDS011;19112;51.076;3.706;2022-08-19T01:43:50;49.30;;;26.67;;
32734;SDS011;19112;51.076;3.706;2022-08-19T01:46:17;51.63;;;26.65;;
32734;SDS011;19112;51.076;3.706;2022-08-19T01:48:45;51.58;;;26.65;;
32734;SDS011;19112;51.076;3.706;2022-08-19T01:51:11;53.17;;;26.88;;
32734;SDS011;19112;51.076;3.706;2022-08-19T01:53:38;54.63;;;26.60;;
32734;SDS011;19112;51.076;3.706;2022-08-19T01:56:05;49.90;;;27.10;;
32734;SDS011;19112;51.076;3.706;2022-08-19T01:58:34;47.33;;;25.77;;
32734;SDS011;19112;51.076;3.706;2022-08-19T02:01:11;50.58;;;25.67;;
32734;SDS011;19112;51.076;3.706;2022-08-19T02:03:38;52.75;;;25.00;;
32734;SDS011;19112;51.076;3.706;2022-08-19T02:06:05;49.70;;;25.95;;
32734;SDS011;19112;51.076;3.706;2022-08-19T02:08:32;51.88;;;25.25;;
32734;SDS011;19112;51.076;3.706;2022-08-19T02:11:01;49.38;;;25.15;;
32734;SDS011;19112;51.076;3.706;2022-08-19T02:13:27;48.05;;;24.13;;
32734;SDS011;19112;51.076;3.706;2022-08-19T02:15:53;51.42;;;24.55;;
32734;SDS011;19112;51.076;3.706;2022-08-19T02:18:19;45.35;;;22.02;;
32734;SDS011;19112;51.076;3.706;2022-08-19T02:20:44;47.92;;;23.27;;
32734;SDS011;19112;51.076;3.706;2022-08-19T02:23:12;53.28;;;24.88;;
32734;SDS011;19112;51.076;3.706;2022-08-19T02:25:41;49.33;;;23.83;;
32734;SDS011;19112;51.076;3.706;2022-08-19T02:28:11;49.05;;;23.83;;
32734;SDS011;19112;51.076;3.706;2022-08-19T02:30:38;51.15;;;23.92;;
32734;SDS011;19112;51.076;3.706;2022-08-19T02:33:06;55.33;;;22.50;;
32734;SDS011;19112;51.076;3.706;2022-08-19T02:35:32;49.08;;;23.45;;
32734;SDS011;19112;51.076;3.706;2022-08-19T02:37:58;46.28;;;23.75;;
32734;SDS011;19112;51.076;3.706;2022-08-19T02:40:48;43.47;;;22.13;;
32734;SDS011;19112;51.076;3.706;2022-08-19T02:43:17;51.83;;;23.45;;
32734;SDS011;19112;51.076;3.706;2022-08-19T02:45:48;47.20;;;23.08;;
32734;SDS011;19112;51.076;3.706;2022-08-19T02:48:16;48.28;;;22.35;;
32734;SDS011;19112;51.076;3.706;2022-08-19T02:50:47;47.42;;;22.35;;
32734;SDS011;19112;51.076;3.706;2022-08-19T02:53:20;43.03;;;21.05;;
32734;SDS011;19112;51.076;3.706;2022-08-19T02:55:52;45.78;;;21.02;;
32734;SDS011;19112;51.076;3.706;2022-08-19T02:58:18;42.75;;;21.02;;
32734;SDS011;19112;51.076;3.706;2022-08-19T03:00:50;47.45;;;22.23;;
32734;SDS011;19112;51.076;3.706;2022-08-19T03:03:20;47.75;;;22.33;;
32734;SDS011;19112;51.076;3.706;2022-08-19T03:05:46;44.38;;;21.75;;
32734;SDS011;19112;51.076;3.706;2022-08-19T03:08:12;47.58;;;22.38;;
32734;SDS011;19112;51.076;3.706;2022-08-19T03:10:40;43.80;;;22.23;;
32734;SDS011;19112;51.076;3.706;2022-08-19T03:13:15;48.35;;;23.45;;
32734;SDS011;19112;51.076;3.706;2022-08-19T03:15:43;44.97;;;23.13;;
32734;SDS011;19112;51.076;3.706;2022-08-19T03:18:11;47.83;;;23.20;;
32734;SDS011;19112;51.076;3.706;2022-08-19T03:20:46;46.38;;;22.08;;
32734;SDS011;19112;51.076;3.706;2022-08-19T03:23:15;48.25;;;23.08;;
32734;SDS011;19112;51.076;3.706;2022-08-19T03:25:42;45.50;;;22.10;;
32734;SDS011;19112;51.076;3.706;2022-08-19T03:28:11;45.90;;;21.65;;
32734;SDS011;19112;51.076;3.706;2022-08-19T03:30:40;42.85;;;21.42;;
32734;SDS011;19112;51.076;3.706;2022-08-19T03:33:08;47.15;;;22.60;;
32734;SDS011;19112;51.076;3.706;2022-08-19T03:35:37;49.65;;;21.05;;
32734;SDS011;19112;51.076;3.706;2022-08-19T03:38:04;41.85;;;20.75;;
32734;SDS011;19112;51.076;3.706;2022-08-19T03:40:31;45.28;;;20.40;;
32734;SDS011;19112;51.076;3.706;2022-08-19T03:43:01;41.67;;;20.60;;
32734;SDS011;19112;51.076;3.706;2022-08-19T03:45:27;44.78;;;19.17;;
32734;SDS011;19112;51.076;3.706;2022-08-19T03:47:53;40.10;;;19.67;;
32734;SDS011;19112;51.076;3.706;2022-08-19T03:50:20;38.88;;;19.25;;
32734;SDS011;19112;51.076;3.706;2022-08-19T03:52:48;39.30;;;19.85;;
32734;SDS011;19112;51.076;3.706;2022-08-19T03:55:15;41.90;;;18.50;;
32734;SDS011;19112;51.076;3.706;2022-08-19T03:57:42;39.97;;;18.77;;
32734;SDS011;19112;51.076;3.706;2022-08-19T04:00:10;36.42;;;18.42;;
32734;SDS011;19112;51.076;3.706;2022-08-19T04:02:36;40.03;;;18.83;;
32734;SDS011;19112;51.076;3.706;2022-08-19T04:05:02;36.70;;;17.90;;
32734;SDS011;19112;51.076;3.706;2022-08-19T04:07:28;39.97;;;18.95;;
32734;SDS011;19112;51.076;3.706;2022-08-19T04:09:54;43.22;;;19.25;;
32734;SDS011;19112;51.076;3.706;2022-08-19T04:12:20;37.63;;;18.27;;
32734;SDS011;19112;51.076;3.706;2022-08-19T04:14:45;40.65;;;17.98;;
32734;SDS011;19112;51.076;3.706;2022-08-19T04:17:11;36.00;;;18.48;;
32734;SDS011;19112;51.076;3.706;2022-08-19T04:19:39;41.28;;;17.85;;
32734;SDS011;19112;51.076;3.706;2022-08-19T04:22:06;40.72;;;17.63;;
32734;SDS011;19112;51.076;3.706;2022-08-19T04:24:32;37.78;;;17.27;;
32734;SDS011;19112;51.076;3.706;2022-08-19T04:27:00;40.22;;;17.77;;
32734;SDS011;19112;51.076;3.706;2022-08-19T04:29:27;38.38;;;18.10;;
32734;SDS011;19112;51.076;3.706;2022-08-19T04:31:55;38.80;;;18.73;;
32734;SDS011;19112;51.076;3.706;2022-08-19T04:34:24;37.08;;;18.08;;
32734;SDS011;19112;51.076;3.706;2022-08-19T04:36:53;37.47;;;17.55;;
32734;SDS011;19112;51.076;3.706;2022-08-19T04:39:26;41.92;;;17.75;;
32734;SDS011;19112;51.076;3.706;2022-08-19T04:42:13;49.47;;;17.95;;
32734;SDS011;19112;51.076;3.706;2022-08-19T04:44:59;48.65;;;17.98;;
32734;SDS011;19112;51.076;3.706;2022-08-19T04:47:27;40.55;;;17.88;;
32734;SDS011;19112;51.076;3.706;2022-08-19T04:49:53;41.17;;;17.98;;
32734;SDS011;19112;51.076;3.706;2022-08-19T04:52:19;38.42;;;18.27;;
32734;SDS011;19112;51.076;3.706;2022-08-19T04:54:44;38.28;;;17.95;;
32734;SDS011;19112;51.076;3.706;2022-08-19T04:57:10;34.40;;;17.52;;
32734;SDS011;19112;51.076;3.706;2022-08-19T04:59:37;42.70;;;17.15;;
32734;SDS011;19112;51.076;3.706;2022-08-19T05:02:03;42.30;;;18.00;;
32734;SDS011;19112;51.076;3.706;2022-08-19T05:04:31;33.88;;;15.52;;
32734;SDS011;19112;51.076;3.706;2022-08-19T05:06:57;35.40;;;15.55;;
32734;SDS011;19112;51.076;3.706;2022-08-19T05:09:24;41.30;;;17.38;;
32734;SDS011;19112;51.076;3.706;2022-08-19T05:11:49;36.78;;;16.83;;
32734;SDS011;19112;51.076;3.706;2022-08-19T05:14:18;37.63;;;16.15;;
32734;SDS011;19112;51.076;3.706;2022-08-19T05:16:45;43.22;;;16.73;;
32734;SDS011;19112;51.076;3.706;2022-08-19T05:19:12;36.65;;;15.63;;
32734;SDS011;19112;51.076;3.706;2022-08-19T05:21:56;34.60;;;15.90;;
32734;SDS011;19112;51.076;3.706;2022-08-19T05:24:42;44.50;;;15.02;;
32734;SDS011;19112;51.076;3.706;2022-08-19T05:27:08;42.50;;;16.95;;
32734;SDS011;19112;51.076;3.706;2022-08-19T05:29:34;34.45;;;14.93;;
32734;SDS011;19112;51.076;3.706;2022-08-19T05:32:01;32.42;;;13.85;;
32734;SDS011;19112;51.076;3.706;2022-08-19T05:34:34;32.17;;;13.63;;
32734;SDS011;19112;51.076;3.706;2022-08-19T05:37:01;40.95;;;15.55;;
32734;SDS011;19112;51.076;3.706;2022-08-19T05:39:29;39.47;;;15.68;;
32734;SDS011;19112;51.076;3.706;2022-08-19T05:41:59;40.08;;;14.02;;
32734;SDS011;19112;51.076;3.706;2022-08-19T05:44:32;32.67;;;13.52;;
32734;SDS011;19112;51.076;3.706;2022-08-19T05:47:05;29.98;;;14.32;;
32734;SDS011;19112;51.076;3.706;2022-08-19T05:49:33;40.20;;;15.10;;
32734;SDS011;19112;51.076;3.706;2022-08-19T05:52:03;33.75;;;14.45;;
32734;SDS011;19112;51.076;3.706;2022-08-19T05:54:32;35.22;;;15.90;;
32734;SDS011;19112;51.076;3.706;2022-08-19T05:56:59;41.08;;;14.98;;
32734;SDS011;19112;51.076;3.706;2022-08-19T05:59:26;36.20;;;15.85;;
32734;SDS011;19112;51.076;3.706;2022-08-19T06:01:52;43.70;;;14.90;;
32734;SDS011;19112;51.076;3.706;2022-08-19T06:04:20;33.00;;;15.20;;
32734;SDS011;19112;51.076;3.706;2022-08-19T06:06:47;37.20;;;15.77;;
32734;SDS011;19112;51.076;3.706;2022-08-19T06:09:16;35.85;;;15.68;;
32734;SDS011;19112;51.076;3.706;2022-08-19T06:11:47;36.80;;;16.00;;
32734;SDS011;19112;51.076;3.706;2022-08-19T06:14:19;41.90;;;17.08;;
32734;SDS011;19112;51.076;3.706;2022-08-19T06:16:49;35.20;;;15.70;;
32734;SDS011;19112;51.076;3.706;2022-08-19T06:19:19;36.60;;;14.95;;
32734;SDS011;19112;51.076;3.706;2022-08-19T06:21:49;34.20;;;16.48;;
32734;SDS011;19112;51.076;3.706;2022-08-19T06:24:17;33.97;;;16.38;;
32734;SDS011;19112;51.076;3.706;2022-08-19T06:26:49;40.60;;;17.35;;
32734;SDS011;19112;51.076;3.706;2022-08-19T06:29:18;32.50;;;14.20;;
32734;SDS011;19112;51.076;3.706;2022-08-19T06:31:47;41.67;;;15.85;;
32734;SDS011;19112;51.076;3.706;2022-08-19T06:34:16;34.38;;;15.57;;
32734;SDS011;19112;51.076;3.706;2022-08-19T06:36:46;32.15;;;14.85;;
32734;SDS011;19112;51.076;3.706;2022-08-19T06:39:16;30.23;;;14.90;;
32734;SDS011;19112;51.076;3.706;2022-08-19T06:41:50;33.17;;;13.80;;
32734;SDS011;19112;51.076;3.706;2022-08-19T06:44:19;29.88;;;13.50;;
32734;SDS011;19112;51.076;3.706;2022-08-19T06:46:47;29.92;;;12.60;;
32734;SDS011;19112;51.076;3.706;2022-08-19T06:49:14;29.27;;;13.98;;
32734;SDS011;19112;51.076;3.706;2022-08-19T06:51:41;26.90;;;12.20;;
32734;SDS011;19112;51.076;3.706;2022-08-19T06:54:12;25.65;;;12.85;;
32734;SDS011;19112;51.076;3.706;2022-08-19T06:56:39;29.98;;;13.85;;
32734;SDS011;19112;51.076;3.706;2022-08-19T06:59:10;27.23;;;12.02;;
32734;SDS011;19112;51.076;3.706;2022-08-19T07:01:49;24.30;;;12.82;;
32734;SDS011;19112;51.076;3.706;2022-08-19T07:04:19;26.00;;;11.98;;
32734;SDS011;19112;51.076;3.706;2022-08-19T07:06:57;30.15;;;13.20;;
32734;SDS011;19112;51.076;3.706;2022-08-19T07:09:26;32.35;;;13.48;;
32734;SDS011;19112;51.076;3.706;2022-08-19T07:11:52;37.53;;;13.68;;
32734;SDS011;19112;51.076;3.706;2022-08-19T07:14:21;33.13;;;14.27;;
32734;SDS011;19112;51.076;3.706;2022-08-19T07:16:51;30.63;;;14.00;;
32734;SDS011;19112;51.076;3.706;2022-08-19T07:19:20;40.10;;;14.10;;
32734;SDS011;19112;51.076;3.706;2022-08-19T07:21:49;29.92;;;14.38;;
32734;SDS011;19112;51.076;3.706;2022-08-19T07:24:20;36.20;;;15.30;;
32734;SDS011;19112;51.076;3.706;2022-08-19T07:26:49;28.33;;;14.10;;
32734;SDS011;19112;51.076;3.706;2022-08-19T07:29:16;29.52;;;14.77;;
32734;SDS011;19112;51.076;3.706;2022-08-19T07:31:43;31.48;;;14.77;;
32734;SDS011;19112;51.076;3.706;2022-08-19T07:34:10;28.48;;;14.32;;
32734;SDS011;19112;51.076;3.706;2022-08-19T07:36:39;29.35;;;13.77;;
32734;SDS011;19112;51.076;3.706;2022-08-19T07:39:11;29.55;;;13.80;;
32734;SDS011;19112;51.076;3.706;2022-08-19T07:41:40;29.98;;;14.93;;
32734;SDS011;19112;51.076;3.706;2022-08-19T07:44:07;28.13;;;14.13;;
32734;SDS011;19112;51.076;3.706;2022-08-19T07:46:34;29.65;;;14.18;;
32734;SDS011;19112;51.076;3.706;2022-08-19T07:49:04;29.17;;;15.10;;
32734;SDS011;19112;51.076;3.706;2022-08-19T07:51:32;31.83;;;15.05;;
32734;SDS011;19112;51.076;3.706;2022-08-19T07:53:59;29.75;;;14.90;;
32734;SDS011;19112;51.076;3.706;2022-08-19T07:56:25;31.80;;;16.48;;
32734;SDS011;19112;51.076;3.706;2022-08-19T07:58:51;30.88;;;15.98;;
32734;SDS011;19112;51.076;3.706;2022-08-19T08:01:19;31.15;;;15.73;;
32734;SDS011;19112;51.076;3.706;2022-08-19T08:03:50;27.48;;;15.73;;
32734;SDS011;19112;51.076;3.706;2022-08-19T08:06:36;32.00;;;14.93;;
32734;SDS011;19112;51.076;3.706;2022-08-19T08:09:23;28.50;;;15.60;;
32734;SDS011;19112;51.076;3.706;2022-08-19T08:14:36;29.27;;;15.43;;
32734;SDS011;19112;51.076;3.706;2022-08-19T08:17:15;26.50;;;13.38;;
32734;SDS011;19112;51.076;3.706;2022-08-19T08:19:44;30.58;;;14.98;;
32734;SDS011;19112;51.076;3.706;2022-08-19T08:22:10;30.50;;;15.20;;
32734;SDS011;19112;51.076;3.706;2022-08-19T08:25:13;29.65;;;14.35;;
32734;SDS011;19112;51.076;3.706;2022-08-19T08:27:44;32.00;;;14.07;;
32734;SDS011;19112;51.076;3.706;2022-08-19T08:30:15;25.52;;;13.63;;
32734;SDS011;19112;51.076;3.706;2022-08-19T08:32:48;26.67;;;13.75;;
32734;SDS011;19112;51.076;3.706;2022-08-19T08:35:16;26.60;;;13.10;;
32734;SDS011;19112;51.076;3.706;2022-08-19T08:37:47;30.95;;;14.40;;
32734;SDS011;19112;51.076;3.706;2022-08-19T08:40:22;26.58;;;13.27;;
32734;SDS011;19112;51.076;3.706;2022-08-19T08:43:04;25.52;;;13.40;;
32734;SDS011;19112;51.076;3.706;2022-08-19T08:46:13;25.90;;;12.90;;
32734;SDS011;19112;51.076;3.706;2022-08-19T08:48:53;24.75;;;13.07;;
32734;SDS011;19112;51.076;3.706;2022-08-19T08:54:46;23.67;;;12.00;;
32734;SDS011;19112;51.076;3.706;2022-08-19T08:57:19;24.55;;;12.88;;
32734;SDS011;19112;51.076;3.706;2022-08-19T09:00:05;24.38;;;12.02;;
32734;SDS011;19112;51.076;3.706;2022-08-19T09:02:37;25.52;;;12.43;;
32734;SDS011;19112;51.076;3.706;2022-08-19T09:05:03;23.63;;;11.95;;
32734;SDS011;19112;51.076;3.706;2022-08-19T09:10:51;24.90;;;10.02;;
32734;SDS011;19112;51.076;3.706;2022-08-19T09:16:16;17.00;;;6.80;;
32734;SDS011;19112;51.076;3.706;2022-08-19T09:18:52;16.73;;;6.57;;
32734;SDS011;19112;51.076;3.706;2022-08-19T09:21:26;15.98;;;6.10;;
32734;SDS011;19112;51.076;3.706;2022-08-19T09:23:52;18.48;;;7.25;;
32734;SDS011;19112;51.076;3.706;2022-08-19T09:26:20;15.75;;;6.95;;
32734;SDS011;19112;51.076;3.706;2022-08-19T09:28:49;14.73;;;6.35;;
32734;SDS011;19112;51.076;3.706;2022-08-19T09:31:18;15.18;;;5.57;;
32734;SDS011;19112;51.076;3.706;2022-08-19T09:33:49;17.50;;;5.70;;
32734;SDS011;19112;51.076;3.706;2022-08-19T09:36:17;12.10;;;4.72;;
32734;SDS011;19112;51.076;3.706;2022-08-19T09:38:47;13.07;;;5.13;;
32734;SDS011;19112;51.076;3.706;2022-08-19T09:41:17;16.15;;;4.90;;
32734;SDS011;19112;51.076;3.706;2022-08-19T09:43:46;13.63;;;5.00;;
32734;SDS011;19112;51.076;3.706;2022-08-19T09:46:20;11.88;;;4.70;;
32734;SDS011;19112;51.076;3.706;2022-08-19T09:48:47;11.05;;;4.50;;
32734;SDS011;19112;51.076;3.706;2022-08-19T09:51:16;12.43;;;4.85;;
32734;SDS011;19112;51.076;3.706;2022-08-19T09:56:22;7.97;;;3.60;;
32734;SDS011;19112;51.076;3.706;2022-08-19T09:58:49;10.65;;;3.78;;
32734;SDS011;19112;51.076;3.706;2022-08-19T10:01:26;9.45;;;3.47;;
32734;SDS011;19112;51.076;3.706;2022-08-19T10:03:55;9.73;;;3.78;;
32734;SDS011;19112;51.076;3.706;2022-08-19T10:06:26;10.57;;;3.42;;
32734;SDS011;19112;51.076;3.706;2022-08-19T10:08:58;8.73;;;3.17;;
32734;SDS011;19112;51.076;3.706;2022-08-19T10:11:25;10.77;;;3.40;;
32734;SDS011;19112;51.076;3.706;2022-08-19T10:13:51;10.38;;;3.28;;
32734;SDS011;19112;51.076;3.706;2022-08-19T10:16:22;5.78;;;2.92;;
32734;SDS011;19112;51.076;3.706;2022-08-19T10:18:50;10.30;;;3.78;;
32734;SDS011;19112;51.076;3.706;2022-08-19T10:21:25;9.50;;;3.00;;
32734;SDS011;19112;51.076;3.706;2022-08-19T10:23:54;7.50;;;3.05;;
32734;SDS011;19112;51.076;3.706;2022-08-19T10:26:25;11.55;;;3.55;;
32734;SDS011;19112;51.076;3.706;2022-08-19T10:28:54;5.20;;;2.60;;
32734;SDS011;19112;51.076;3.706;2022-08-19T10:31:23;5.43;;;2.83;;
32734;SDS011;19112;51.076;3.706;2022-08-19T10:33:52;11.45;;;3.50;;
32734;SDS011;19112;51.076;3.706;2022-08-19T10:36:24;8.38;;;3.10;;
32734;SDS011;19112;51.076;3.706;2022-08-19T10:39:00;11.60;;;3.20;;
32734;SDS011;19112;51.076;3.706;2022-08-19T10:41:32;8.00;;;3.33;;
32734;SDS011;19112;51.076;3.706;2022-08-19T10:44:03;9.52;;;3.42;;
32734;SDS011;19112;51.076;3.706;2022-08-19T10:46:35;9.60;;;3.33;;
32734;SDS011;19112;51.076;3.706;2022-08-19T10:49:06;8.13;;;3.30;;
32734;SDS011;19112;51.076;3.706;2022-08-19T10:51:35;8.85;;;2.65;;
32734;SDS011;19112;51.076;3.706;2022-08-19T10:54:20;7.95;;;3.35;;
32734;SDS011;19112;51.076;3.706;2022-08-19T10:56:46;9.52;;;3.72;;
32734;SDS011;19112;51.076;3.706;2022-08-19T11:01:47;11.90;;;4.22;;
32734;SDS011;19112;51.076;3.706;2022-08-19T11:04:14;17.63;;;4.68;;
32734;SDS011;19112;51.076;3.706;2022-08-19T11:06:43;19.15;;;5.05;;
32734;SDS011;19112;51.076;3.706;2022-08-19T11:09:12;22.15;;;5.45;;
32734;SDS011;19112;51.076;3.706;2022-08-19T11:11:41;15.38;;;4.40;;
32734;SDS011;19112;51.076;3.706;2022-08-19T11:14:11;16.95;;;4.22;;
32734;SDS011;19112;51.076;3.706;2022-08-19T11:16:40;20.92;;;6.35;;
32734;SDS011;19112;51.076;3.706;2022-08-19T11:19:08;8.77;;;4.20;;
32734;SDS011;19112;51.076;3.706;2022-08-19T11:21:37;20.27;;;5.47;;
32734;SDS011;19112;51.076;3.706;2022-08-19T11:24:08;9.13;;;4.78;;
32734;SDS011;19112;51.076;3.706;2022-08-19T11:26:38;11.00;;;5.13;;
32734;SDS011;19112;51.076;3.706;2022-08-19T11:29:06;13.82;;;5.78;;
32734;SDS011;19112;51.076;3.706;2022-08-19T11:31:39;11.85;;;5.65;;
32734;SDS011;19112;51.076;3.706;2022-08-19T11:34:09;10.00;;;5.32;;
32734;SDS011;19112;51.076;3.706;2022-08-19T11:36:38;12.52;;;5.38;;
32734;SDS011;19112;51.076;3.706;2022-08-19T11:39:08;15.27;;;5.45;;
32734;SDS011;19112;51.076;3.706;2022-08-19T11:41:35;14.43;;;5.63;;
32734;SDS011;19112;51.076;3.706;2022-08-19T11:44:02;13.40;;;6.15;;
32734;SDS011;19112;51.076;3.706;2022-08-19T11:46:29;15.48;;;4.93;;
32734;SDS011;19112;51.076;3.706;2022-08-19T11:48:56;14.07;;;5.00;;
32734;SDS011;19112;51.076;3.706;2022-08-19T11:51:25;11.90;;;4.40;;
32734;SDS011;19112;51.076;3.706;2022-08-19T11:53:52;10.60;;;4.75;;
32734;SDS011;19112;51.076;3.706;2022-08-19T11:56:20;10.60;;;4.47;;
32734;SDS011;19112;51.076;3.706;2022-08-19T11:58:47;8.93;;;4.55;;
32734;SDS011;19112;51.076;3.706;2022-08-19T12:01:14;9.93;;;3.72;;
32734;SDS011;19112;51.076;3.706;2022-08-19T12:03:45;11.60;;;3.60;;
32734;SDS011;19112;51.076;3.706;2022-08-19T12:06:14;9.45;;;3.60;;
32734;SDS011;19112;51.076;3.706;2022-08-19T12:08:48;8.05;;;3.65;;
32734;SDS011;19112;51.076;3.706;2022-08-19T12:11:14;9.30;;;4.45;;
32734;SDS011;19112;51.076;3.706;2022-08-19T12:13:41;11.05;;;4.20;;
32734;SDS011;19112;51.076;3.706;2022-08-19T12:16:16;11.48;;;4.53;;
32734;SDS011;19112;51.076;3.706;2022-08-19T12:18:45;10.32;;;5.20;;
32734;SDS011;19112;51.076;3.706;2022-08-19T12:21:12;12.38;;;5.90;;
32734;SDS011;19112;51.076;3.706;2022-08-19T12:23:41;14.30;;;5.55;;
32734;SDS011;19112;51.076;3.706;2022-08-19T12:26:08;9.98;;;4.57;;
32734;SDS011;19112;51.076;3.706;2022-08-19T12:28:35;11.05;;;4.55;;
32734;SDS011;19112;51.076;3.706;2022-08-19T12:31:01;9.32;;;4.55;;
32734;SDS011;19112;51.076;3.706;2022-08-19T12:33:27;9.82;;;4.90;;
32734;SDS011;19112;51.076;3.706;2022-08-19T12:35:53;7.47;;;4.18;;
32734;SDS011;19112;51.076;3.706;2022-08-19T12:38:24;6.05;;;3.70;;
32734;SDS011;19112;51.076;3.706;2022-08-19T12:40:50;10.02;;;3.75;;
32734;SDS011;19112;51.076;3.706;2022-08-19T12:43:19;7.82;;;3.50;;
32734;SDS011;19112;51.076;3.706;2022-08-19T12:45:45;7.53;;;3.83;;
32734;SDS011;19112;51.076;3.706;2022-08-19T12:48:11;7.30;;;3.40;;
32734;SDS011;19112;51.076;3.706;2022-08-19T12:50:41;6.80;;;3.30;;
32734;SDS011;19112;51.076;3.706;2022-08-19T12:53:12;12.60;;;3.83;;
32734;SDS011;19112;51.076;3.706;2022-08-19T12:55:39;10.18;;;3.08;;
32734;SDS011;19112;51.076;3.706;2022-08-19T12:58:05;4.88;;;2.70;;
32734;SDS011;19112;51.076;3.706;2022-08-19T13:00:31;7.85;;;3.10;;
32734;SDS011;19112;51.076;3.706;2022-08-19T13:02:57;5.72;;;2.65;;
32734;SDS011;19112;51.076;3.706;2022-08-19T13:05:26;3.03;;;2.28;;
32734;SDS011;19112;51.076;3.706;2022-08-19T13:07:55;9.32;;;2.33;;
32734;SDS011;19112;51.076;3.706;2022-08-19T13:10:25;3.85;;;2.25;;
32734;SDS011;19112;51.076;3.706;2022-08-19T13:12:55;7.40;;;2.60;;
32734;SDS011;19112;51.076;3.706;2022-08-19T13:15:24;5.93;;;2.50;;
32734;SDS011;19112;51.076;3.706;2022-08-19T13:17:50;4.78;;;2.30;;
32734;SDS011;19112;51.076;3.706;2022-08-19T13:20:20;11.60;;;3.00;;
32734;SDS011;19112;51.076;3.706;2022-08-19T13:22:47;10.60;;;3.00;;
32734;SDS011;19112;51.076;3.706;2022-08-19T13:25:13;9.20;;;2.88;;
32734;SDS011;19112;51.076;3.706;2022-08-19T13:27:42;9.40;;;2.70;;
32734;SDS011;19112;51.076;3.706;2022-08-19T13:30:09;10.93;;;2.38;;
32734;SDS011;19112;51.076;3.706;2022-08-19T13:32:56;13.00;;;2.55;;
32734;SDS011;19112;51.076;3.706;2022-08-19T13:38:13;4.47;;;1.25;;
32734;SDS011;19112;51.076;3.706;2022-08-19T13:40:45;4.30;;;1.80;;
32734;SDS011;19112;51.076;3.706;2022-08-19T13:43:12;16.75;;;2.50;;
32734;SDS011;19112;51.076;3.706;2022-08-19T13:45:38;11.07;;;2.25;;
32734;SDS011;19112;51.076;3.706;2022-08-19T13:48:05;10.80;;;2.30;;
32734;SDS011;19112;51.076;3.706;2022-08-19T13:50:33;6.35;;;2.00;;
32734;SDS011;19112;51.076;3.706;2022-08-19T13:53:06;9.38;;;2.58;;
32734;SDS011;19112;51.076;3.706;2022-08-19T13:55:34;6.10;;;2.90;;
32734;SDS011;19112;51.076;3.706;2022-08-19T13:58:01;5.72;;;2.35;;
32734;SDS011;19112;51.076;3.706;2022-08-19T14:00:29;7.45;;;2.92;;
32734;SDS011;19112;51.076;3.706;2022-08-19T14:02:57;11.05;;;3.40;;
32734;SDS011;19112;51.076;3.706;2022-08-19T14:05:24;11.05;;;4.05;;
32734;SDS011;19112;51.076;3.706;2022-08-19T14:07:51;11.75;;;4.30;;
32734;SDS011;19112;51.076;3.706;2022-08-19T14:10:18;8.85;;;4.38;;
32734;SDS011;19112;51.076;3.706;2022-08-19T14:12:44;10.68;;;4.75;;
32734;SDS011;19112;51.076;3.706;2022-08-19T14:15:11;16.25;;;6.63;;
32734;SDS011;19112;51.076;3.706;2022-08-19T14:17:42;14.32;;;6.55;;
32734;SDS011;19112;51.076;3.706;2022-08-19T14:20:12;15.38;;;6.57;;
32734;SDS011;19112;51.076;3.706;2022-08-19T14:22:40;17.25;;;7.43;;
32734;SDS011;19112;51.076;3.706;2022-08-19T14:25:08;15.23;;;7.15;;
32734;SDS011;19112;51.076;3.706;2022-08-19T14:27:41;18.42;;;7.60;;
32734;SDS011;19112;51.076;3.706;2022-08-19T14:30:08;18.33;;;7.70;;
32734;SDS011;19112;51.076;3.706;2022-08-19T14:32:38;17.50;;;7.63;;
32734;SDS011;19112;51.076;3.706;2022-08-19T14:35:05;18.38;;;7.15;;
32734;SDS011;19112;51.076;3.706;2022-08-19T14:37:32;16.17;;;7.03;;
32734;SDS011;19112;51.076;3.706;2022-08-19T14:39:59;15.70;;;6.25;;
32734;SDS011;19112;51.076;3.706;2022-08-19T14:42:28;15.70;;;6.82;;
32734;SDS011;19112;51.076;3.706;2022-08-19T14:44:57;17.42;;;6.75;;
32734;SDS011;19112;51.076;3.706;2022-08-19T14:47:24;13.48;;;5.82;;
32734;SDS011;19112;51.076;3.706;2022-08-19T14:49:50;17.02;;;6.43;;
32734;SDS011;19112;51.076;3.706;2022-08-19T14:52:16;16.15;;;6.32;;
32734;SDS011;19112;51.076;3.706;2022-08-19T14:54:42;14.00;;;6.25;;
32734;SDS011;19112;51.076;3.706;2022-08-19T14:57:10;15.65;;;6.68;;
32734;SDS011;19112;51.076;3.706;2022-08-19T14:59:40;17.95;;;6.57;;
32734;SDS011;19112;51.076;3.706;2022-08-19T15:02:07;19.23;;;6.57;;